createdAt,value
2023-07-31T00:02:04.888Z,21.51
2023-07-31T00:04:31.305Z,21.50
2023-07-31T00:06:57.825Z,21.50
2023-07-31T00:09:24.193Z,21.48
2023-07-31T00:11:50.526Z,21.47
2023-07-31T00:14:17.653Z,21.45
2023-07-31T00:16:44.119Z,21.42
2023-07-31T00:19:10.418Z,21.42
2023-07-31T00:21:37.168Z,21.41
2023-07-31T00:24:03.594Z,21.39
2023-07-31T00:26:29.979Z,21.38
2023-07-31T00:28:56.302Z,21.36
2023-07-31T00:31:22.739Z,21.35
2023-07-31T00:33:49.115Z,21.33
2023-07-31T00:36:15.478Z,21.32
2023-07-31T00:38:43.020Z,21.31
2023-07-31T00:41:09.354Z,21.30
2023-07-31T00:43:35.835Z,21.30
2023-07-31T00:46:02.250Z,21.29
2023-07-31T00:48:28.636Z,21.27
2023-07-31T00:50:54.946Z,21.26
2023-07-31T00:53:21.426Z,21.27
2023-07-31T00:55:47.940Z,21.26
2023-07-31T00:58:14.389Z,21.25
2023-07-31T01:00:41.059Z,21.24
2023-07-31T01:03:07.691Z,21.22
2023-07-31T01:05:34.966Z,21.21
2023-07-31T01:08:01.295Z,21.19
2023-07-31T01:10:27.924Z,21.18
2023-07-31T01:12:54.342Z,21.17
2023-07-31T01:15:20.745Z,21.16
2023-07-31T01:17:47.103Z,21.15
2023-07-31T01:20:13.586Z,21.14
2023-07-31T01:22:39.988Z,21.13
2023-07-31T01:25:06.303Z,21.11
2023-07-31T01:27:32.722Z,21.10
2023-07-31T01:29:59.167Z,21.09
2023-07-31T01:32:25.704Z,21.07
2023-07-31T01:34:52.115Z,21.08
2023-07-31T01:37:18.452Z,21.06
2023-07-31T01:39:44.821Z,21.06
2023-07-31T01:42:11.247Z,21.05
2023-07-31T01:44:37.602Z,21.04
2023-07-31T01:47:03.960Z,21.03
2023-07-31T01:49:30.380Z,21.02
2023-07-31T01:51:57.352Z,21.02
2023-07-31T01:54:23.712Z,21.00
2023-07-31T01:56:51.955Z,20.99
2023-07-31T01:59:18.261Z,20.98
2023-07-31T02:01:44.684Z,20.97
2023-07-31T02:04:11.100Z,20.97
2023-07-31T02:06:37.690Z,20.96
2023-07-31T02:09:04.423Z,20.96
2023-07-31T02:11:30.773Z,20.94
2023-07-31T02:13:57.315Z,20.94
2023-07-31T02:16:23.708Z,20.93
2023-07-31T02:18:51.267Z,20.93
2023-07-31T02:21:18.068Z,20.92
2023-07-31T02:23:44.635Z,20.92
2023-07-31T02:26:11.012Z,20.91
2023-07-31T02:28:37.408Z,20.90
2023-07-31T02:31:03.787Z,20.90
2023-07-31T02:33:30.306Z,20.89
2023-07-31T02:35:56.704Z,20.88
2023-07-31T02:38:23.748Z,20.87
2023-07-31T02:40:50.182Z,20.87
2023-07-31T02:43:16.571Z,20.86
2023-07-31T02:45:42.944Z,20.86
2023-07-31T02:48:09.423Z,20.85
2023-07-31T02:50:35.783Z,20.84
2023-07-31T02:53:02.258Z,20.84
2023-07-31T02:55:29.036Z,20.84
2023-07-31T02:57:55.451Z,20.83
2023-07-31T03:00:21.825Z,20.83
2023-07-31T03:02:48.292Z,20.83
2023-07-31T03:05:14.885Z,20.84
2023-07-31T03:07:41.617Z,20.83
2023-07-31T03:10:08.122Z,20.82
2023-07-31T03:12:34.502Z,20.82
2023-07-31T03:15:00.936Z,20.81
2023-07-31T03:17:27.576Z,20.80
2023-07-31T03:19:54.042Z,20.79
2023-07-31T03:22:20.390Z,20.78
2023-07-31T03:24:46.713Z,20.77
2023-07-31T03:27:13.091Z,20.76
2023-07-31T03:29:39.496Z,20.75
2023-07-31T03:32:06.350Z,20.76
2023-07-31T03:34:32.726Z,20.74
2023-07-31T03:36:59.293Z,20.73
2023-07-31T03:39:25.656Z,20.73
2023-07-31T03:41:52.023Z,20.73
2023-07-31T03:44:18.414Z,20.73
2023-07-31T03:46:46.837Z,20.71
2023-07-31T03:49:15.996Z,20.71
2023-07-31T03:51:42.385Z,20.70
2023-07-31T03:54:11.058Z,20.71
2023-07-31T03:56:37.449Z,20.69
2023-07-31T03:59:04.061Z,20.69
2023-07-31T04:01:30.462Z,20.70
2023-07-31T04:03:56.825Z,20.69
2023-07-31T04:06:23.158Z,20.68
2023-07-31T04:08:49.678Z,20.67
2023-07-31T04:11:16.107Z,20.66
2023-07-31T04:13:42.422Z,20.67
2023-07-31T04:16:09.401Z,20.68
2023-07-31T04:18:36.684Z,20.67
2023-07-31T04:21:07.373Z,20.66
2023-07-31T04:23:33.749Z,20.65
2023-07-31T04:26:00.212Z,20.66
2023-07-31T04:28:26.596Z,20.65
2023-07-31T04:30:53.246Z,20.66
2023-07-31T04:33:19.610Z,20.65
2023-07-31T04:35:46.027Z,20.65
2023-07-31T04:38:12.392Z,20.64
2023-07-31T04:40:38.839Z,20.65
2023-07-31T04:43:05.210Z,20.64
2023-07-31T04:45:31.534Z,20.64
2023-07-31T04:47:58.194Z,20.63
2023-07-31T04:50:28.016Z,20.63
2023-07-31T04:52:54.509Z,20.64
2023-07-31T04:55:21.034Z,20.64
2023-07-31T04:57:47.425Z,20.64
2023-07-31T05:00:13.810Z,20.65
2023-07-31T05:02:40.431Z,20.66
2023-07-31T05:05:06.843Z,20.68
2023-07-31T05:07:33.216Z,20.68
2023-07-31T05:09:59.608Z,20.69
2023-07-31T05:12:26.144Z,20.70
2023-07-31T05:14:52.477Z,20.70
2023-07-31T05:17:19.327Z,20.70
2023-07-31T05:19:45.951Z,20.71
2023-07-31T05:22:12.614Z,20.71
2023-07-31T05:24:39.010Z,20.71
2023-07-31T05:27:06.792Z,20.72
2023-07-31T05:29:33.363Z,20.71
2023-07-31T05:31:59.771Z,20.71
2023-07-31T05:34:26.095Z,20.72
2023-07-31T05:36:52.501Z,20.72
2023-07-31T05:39:18.878Z,20.73
2023-07-31T05:41:45.376Z,20.74
2023-07-31T05:44:11.836Z,20.74
2023-07-31T05:46:38.560Z,20.76
2023-07-31T05:49:05.234Z,20.76
2023-07-31T05:51:31.838Z,20.78
2023-07-31T05:53:58.295Z,20.79
2023-07-31T05:56:24.897Z,20.80
2023-07-31T05:58:51.382Z,20.82
2023-07-31T06:01:18.194Z,20.83
2023-07-31T06:03:44.959Z,20.83
2023-07-31T06:06:11.739Z,20.83
2023-07-31T06:08:38.112Z,20.86
2023-07-31T06:11:04.591Z,20.91
2023-07-31T06:13:32.568Z,20.96
2023-07-31T06:15:59.012Z,20.97
2023-07-31T06:18:25.538Z,20.97
2023-07-31T06:20:52.370Z,20.96
2023-07-31T06:23:18.946Z,20.95
2023-07-31T06:25:45.840Z,20.94
2023-07-31T06:28:13.469Z,20.93
2023-07-31T06:30:40.091Z,20.93
2023-07-31T06:33:06.964Z,20.92
2023-07-31T06:35:33.382Z,20.91
2023-07-31T06:37:59.846Z,20.90
2023-07-31T06:40:26.259Z,20.90
2023-07-31T06:42:52.751Z,20.91
2023-07-31T06:45:19.204Z,20.91
2023-07-31T06:47:45.672Z,20.89
2023-07-31T06:50:12.043Z,20.90
2023-07-31T06:52:38.625Z,20.93
2023-07-31T06:55:05.006Z,20.92
2023-07-31T06:57:31.388Z,20.92
2023-07-31T06:59:57.765Z,20.94
2023-07-31T07:02:24.185Z,20.93
2023-07-31T07:04:50.574Z,20.92
2023-07-31T07:07:16.928Z,20.92
2023-07-31T07:09:43.293Z,20.93
2023-07-31T07:12:09.716Z,20.93
2023-07-31T07:14:36.309Z,20.93
2023-07-31T07:17:02.715Z,20.95
2023-07-31T07:19:29.223Z,21.01
2023-07-31T07:21:55.617Z,21.08
2023-07-31T07:24:22.100Z,21.14
2023-07-31T07:26:48.403Z,21.18
2023-07-31T07:29:14.867Z,21.23
2023-07-31T07:31:41.482Z,21.29
2023-07-31T07:34:07.941Z,21.31
2023-07-31T07:36:35.521Z,21.34
2023-07-31T07:39:01.946Z,21.37
2023-07-31T07:41:28.354Z,21.37
2023-07-31T07:43:54.739Z,21.38
2023-07-31T07:46:21.389Z,21.41
2023-07-31T07:48:47.931Z,21.43
2023-07-31T07:51:14.426Z,21.46
2023-07-31T07:53:40.868Z,21.49
2023-07-31T07:56:07.458Z,21.52
2023-07-31T07:58:34.161Z,21.57
2023-07-31T08:01:00.561Z,21.59
2023-07-31T08:03:27.110Z,21.61
2023-07-31T08:05:53.597Z,21.62
2023-07-31T08:08:19.917Z,21.63
2023-07-31T08:10:46.483Z,21.64
2023-07-31T08:13:13.013Z,21.69
2023-07-31T08:15:39.545Z,21.74
2023-07-31T08:18:05.980Z,21.85
2023-07-31T08:20:32.413Z,21.89
2023-07-31T08:22:58.881Z,21.90
2023-07-31T08:25:25.244Z,21.91
2023-07-31T08:27:51.767Z,21.93
2023-07-31T08:30:19.949Z,21.97
2023-07-31T08:32:47.719Z,22.02
2023-07-31T08:35:14.245Z,21.97
2023-07-31T08:37:40.685Z,21.96
2023-07-31T08:40:07.177Z,21.94
2023-07-31T08:42:33.570Z,21.94
2023-07-31T08:44:59.915Z,21.94
2023-07-31T08:47:26.262Z,21.95
2023-07-31T08:49:52.693Z,21.97
2023-07-31T08:52:19.501Z,21.99
2023-07-31T08:54:46.158Z,22.00
2023-07-31T08:57:12.596Z,22.01
2023-07-31T08:59:39.020Z,22.05
2023-07-31T09:02:05.499Z,22.07
2023-07-31T09:04:32.355Z,22.10
2023-07-31T09:06:58.757Z,22.09
2023-07-31T09:09:25.124Z,22.11
2023-07-31T09:11:51.497Z,22.12
2023-07-31T09:14:17.860Z,22.15
2023-07-31T09:16:44.570Z,22.16
2023-07-31T09:19:11.069Z,22.20
2023-07-31T09:21:37.515Z,22.23
2023-07-31T09:24:03.894Z,22.24
2023-07-31T09:26:30.942Z,22.24
2023-07-31T09:28:58.632Z,22.24
2023-07-31T09:31:25.032Z,22.26
2023-07-31T09:33:51.433Z,22.28
2023-07-31T09:36:17.913Z,22.31
2023-07-31T09:38:44.283Z,22.33
2023-07-31T09:41:10.678Z,22.37
2023-07-31T09:43:37.062Z,22.43
2023-07-31T09:46:03.478Z,22.49
2023-07-31T09:48:29.960Z,22.57
2023-07-31T09:50:56.558Z,22.60
2023-07-31T09:53:23.127Z,22.57
2023-07-31T09:55:49.469Z,22.52
2023-07-31T09:58:16.154Z,22.60
2023-07-31T10:00:42.561Z,22.64
2023-07-31T10:03:09.122Z,22.67
2023-07-31T10:05:35.789Z,22.76
2023-07-31T10:08:02.226Z,22.81
2023-07-31T10:10:28.659Z,22.85
2023-07-31T10:12:55.076Z,22.88
2023-07-31T10:15:21.395Z,22.91
2023-07-31T10:17:47.846Z,22.96
2023-07-31T10:20:14.259Z,23.05
2023-07-31T10:22:40.638Z,23.09
2023-07-31T10:25:07.107Z,23.08
2023-07-31T10:27:33.520Z,23.08
2023-07-31T10:29:59.893Z,23.09
2023-07-31T10:32:26.268Z,23.08
2023-07-31T10:34:52.805Z,23.09
2023-07-31T10:37:19.198Z,23.11
2023-07-31T10:39:45.587Z,23.15
2023-07-31T10:42:12.014Z,23.16
2023-07-31T10:44:38.422Z,23.18
2023-07-31T10:47:04.857Z,23.21
2023-07-31T10:49:31.518Z,23.26
2023-07-31T10:51:58.823Z,23.27
2023-07-31T10:57:28.444Z,23.31
2023-07-31T10:59:55.742Z,23.35
2023-07-31T11:02:36.692Z,23.39
2023-07-31T11:07:56.277Z,23.36
2023-07-31T11:10:24.090Z,23.39
2023-07-31T11:12:51.619Z,23.43
2023-07-31T11:15:17.925Z,23.50
2023-07-31T11:17:44.270Z,23.53
2023-07-31T11:20:10.699Z,23.53
2023-07-31T11:22:37.143Z,23.54
2023-07-31T11:25:03.469Z,23.55
2023-07-31T11:27:33.091Z,23.56
2023-07-31T11:30:05.955Z,23.58
2023-07-31T11:32:33.321Z,23.58
2023-07-31T11:34:59.687Z,23.58
2023-07-31T11:37:25.975Z,23.58
2023-07-31T11:39:52.446Z,23.57
2023-07-31T11:42:18.726Z,23.55
2023-07-31T11:44:45.074Z,23.53
2023-07-31T11:47:11.835Z,23.52
2023-07-31T11:49:39.601Z,23.51
2023-07-31T11:52:06.836Z,23.55
2023-07-31T11:54:33.365Z,23.61
2023-07-31T11:56:59.811Z,23.62
2023-07-31T11:59:27.401Z,23.64
2023-07-31T12:01:54.442Z,23.63
2023-07-31T12:04:21.730Z,23.63
2023-07-31T12:06:48.177Z,23.63
2023-07-31T12:09:14.613Z,23.60
2023-07-31T12:11:41.080Z,23.60
2023-07-31T12:14:07.508Z,23.62
2023-07-31T12:16:33.941Z,23.62
2023-07-31T12:19:00.360Z,23.62
2023-07-31T12:21:26.730Z,23.62
2023-07-31T12:23:53.030Z,23.63
2023-07-31T12:26:19.430Z,23.55
2023-07-31T12:28:46.333Z,23.62
2023-07-31T12:31:12.642Z,23.60
2023-07-31T12:33:43.062Z,23.61
2023-07-31T12:36:09.427Z,23.62
2023-07-31T12:38:35.883Z,23.61
2023-07-31T12:41:02.243Z,23.61
2023-07-31T12:43:29.087Z,23.60
2023-07-31T12:45:55.574Z,23.60
2023-07-31T12:48:22.536Z,23.59
2023-07-31T12:50:55.017Z,23.61
2023-07-31T12:53:24.109Z,23.61
2023-07-31T12:55:50.429Z,23.60
2023-07-31T12:58:16.762Z,23.61
2023-07-31T13:00:43.060Z,23.60
2023-07-31T13:03:09.818Z,23.61
2023-07-31T13:05:49.906Z,23.61
2023-07-31T13:08:20.330Z,23.60
2023-07-31T13:10:46.837Z,23.60
2023-07-31T13:13:16.740Z,23.60
2023-07-31T13:15:43.530Z,23.63
2023-07-31T13:18:10.102Z,23.64
2023-07-31T13:20:36.617Z,23.64
2023-07-31T13:23:02.992Z,23.65
2023-07-31T13:25:30.033Z,23.65
2023-07-31T13:27:56.442Z,23.64
2023-07-31T13:30:23.200Z,23.64
2023-07-31T13:32:50.286Z,23.65
2023-07-31T13:35:16.606Z,23.64
2023-07-31T13:37:43.005Z,23.64
2023-07-31T13:40:09.907Z,23.65
2023-07-31T13:42:39.373Z,23.65
2023-07-31T13:45:07.682Z,23.67
2023-07-31T13:47:34.491Z,23.66
2023-07-31T13:50:00.831Z,23.66
2023-07-31T13:52:27.105Z,23.66
2023-07-31T13:54:53.436Z,23.67
2023-07-31T13:57:19.738Z,23.66
2023-07-31T13:59:46.095Z,23.66
2023-07-31T14:02:12.750Z,23.66
2023-07-31T14:04:39.168Z,23.66
2023-07-31T14:07:05.570Z,23.67
2023-07-31T14:09:32.017Z,23.69
2023-07-31T14:11:58.399Z,23.73
2023-07-31T14:14:24.838Z,23.75
2023-07-31T14:16:51.327Z,23.75
2023-07-31T14:19:18.018Z,23.75
2023-07-31T14:21:51.400Z,23.74
2023-07-31T14:24:24.266Z,23.73
2023-07-31T14:26:50.712Z,23.74
2023-07-31T14:29:17.162Z,23.76
2023-07-31T14:31:43.514Z,23.76
2023-07-31T14:34:09.901Z,23.73
2023-07-31T14:36:36.496Z,23.72
2023-07-31T14:39:05.002Z,23.70
2023-07-31T14:41:31.328Z,23.68
2023-07-31T14:43:57.693Z,23.67
2023-07-31T14:46:24.134Z,23.68
2023-07-31T14:48:50.517Z,23.67
2023-07-31T14:51:16.939Z,23.66
2023-07-31T14:53:43.291Z,23.64
2023-07-31T14:56:09.642Z,23.64
2023-07-31T14:58:36.005Z,23.64
2023-07-31T15:01:02.436Z,23.64
2023-07-31T15:03:28.923Z,23.63
2023-07-31T15:05:55.433Z,23.63
2023-07-31T15:08:21.829Z,23.63
2023-07-31T15:10:48.279Z,23.62
2023-07-31T15:13:24.225Z,23.62
2023-07-31T15:15:50.760Z,23.62
2023-07-31T15:18:17.088Z,23.62
2023-07-31T15:20:43.842Z,23.60
2023-07-31T15:23:10.274Z,23.61
2023-07-31T15:25:36.684Z,23.59
2023-07-31T15:28:03.479Z,23.60
2023-07-31T15:30:29.857Z,23.58
2023-07-31T15:32:56.252Z,23.57
2023-07-31T15:35:22.859Z,23.57
2023-07-31T15:37:49.393Z,23.56
2023-07-31T15:40:15.767Z,23.54
2023-07-31T15:42:42.329Z,23.54
2023-07-31T15:45:08.680Z,23.54
2023-07-31T15:47:35.095Z,23.53
2023-07-31T15:50:01.441Z,23.53
2023-07-31T15:52:28.296Z,23.53
2023-07-31T15:54:54.621Z,23.53
2023-07-31T15:57:21.189Z,23.54
2023-07-31T15:59:47.496Z,23.54
2023-07-31T16:02:13.995Z,23.53
2023-07-31T16:04:40.753Z,23.51
2023-07-31T16:07:07.131Z,23.51
2023-07-31T16:09:33.476Z,23.48
2023-07-31T16:11:59.835Z,23.48
2023-07-31T16:14:26.132Z,23.47
2023-07-31T16:16:53.868Z,23.46
2023-07-31T16:19:20.377Z,23.47
2023-07-31T16:21:46.817Z,23.49
2023-07-31T16:24:13.138Z,23.49
2023-07-31T16:26:39.771Z,23.48
2023-07-31T16:29:06.389Z,23.48
2023-07-31T16:31:43.315Z,23.47
2023-07-31T16:34:17.990Z,23.46
2023-07-31T16:36:44.355Z,23.43
2023-07-31T16:39:10.701Z,23.43
2023-07-31T16:41:37.310Z,23.41
2023-07-31T16:44:04.177Z,23.39
2023-07-31T16:46:30.494Z,23.37
2023-07-31T16:48:56.730Z,23.37
2023-07-31T16:51:23.286Z,23.36
2023-07-31T16:53:49.543Z,23.35
2023-07-31T16:56:15.810Z,23.34
2023-07-31T16:58:42.495Z,23.33
2023-07-31T17:01:08.866Z,23.32
2023-07-31T17:03:35.326Z,23.32
2023-07-31T17:06:01.791Z,23.32
2023-07-31T17:08:28.084Z,23.31
2023-07-31T17:10:54.397Z,23.30
2023-07-31T17:13:21.228Z,23.29
2023-07-31T17:15:47.552Z,23.27
2023-07-31T17:18:14.421Z,23.27
2023-07-31T17:20:40.767Z,23.27
2023-07-31T17:23:07.035Z,23.25
2023-07-31T17:25:33.298Z,23.25
2023-07-31T17:27:59.769Z,23.23
2023-07-31T17:30:26.416Z,23.23
2023-07-31T17:32:52.791Z,23.22
2023-07-31T17:35:19.186Z,23.22
2023-07-31T17:37:45.555Z,23.21
2023-07-31T17:40:11.962Z,23.20
2023-07-31T17:42:38.290Z,23.19
2023-07-31T17:45:04.729Z,23.18
2023-07-31T17:47:31.063Z,23.16
2023-07-31T17:49:57.547Z,23.16
2023-07-31T17:52:23.878Z,23.14
2023-07-31T17:54:50.248Z,23.14
2023-07-31T17:57:16.550Z,23.12
2023-07-31T17:59:42.893Z,23.12
2023-07-31T18:02:09.538Z,23.11
2023-07-31T18:04:36.057Z,23.11
2023-07-31T18:07:02.917Z,23.09
2023-07-31T18:09:33.124Z,23.08
2023-07-31T18:11:59.536Z,23.08
2023-07-31T18:14:25.959Z,23.07
2023-07-31T18:16:52.395Z,23.07
2023-07-31T18:19:18.797Z,23.05
2023-07-31T18:21:45.262Z,23.04
2023-07-31T18:24:11.643Z,23.04
2023-07-31T18:26:38.813Z,23.03
2023-07-31T18:29:05.672Z,23.02
2023-07-31T18:31:32.013Z,23.01
2023-07-31T18:33:58.367Z,23.00
2023-07-31T18:36:24.788Z,23.00
2023-07-31T18:38:51.331Z,22.99
2023-07-31T18:41:17.865Z,22.98
2023-07-31T18:43:44.223Z,22.97
2023-07-31T18:46:12.923Z,22.96
2023-07-31T18:48:39.704Z,22.95
2023-07-31T18:51:06.284Z,22.94
2023-07-31T18:53:32.698Z,22.94
2023-07-31T18:55:59.006Z,22.93
2023-07-31T18:58:25.353Z,22.92
2023-07-31T19:00:51.705Z,22.92
2023-07-31T19:03:18.126Z,22.92
2023-07-31T19:05:44.682Z,22.90
2023-07-31T19:08:11.004Z,22.91
2023-07-31T19:10:37.326Z,22.89
2023-07-31T19:13:03.813Z,22.89
2023-07-31T19:15:30.196Z,22.88
2023-07-31T19:17:56.551Z,22.87
2023-07-31T19:20:23.086Z,22.86
2023-07-31T19:22:49.456Z,22.86
2023-07-31T19:25:15.852Z,22.85
2023-07-31T19:27:44.394Z,22.84
2023-07-31T19:30:11.103Z,22.84
2023-07-31T19:32:37.441Z,22.83
2023-07-31T19:35:03.886Z,22.83
2023-07-31T19:37:30.365Z,22.81
2023-07-31T19:39:56.775Z,22.81
2023-07-31T19:42:23.149Z,22.81
2023-07-31T19:44:49.490Z,22.79
2023-07-31T19:47:15.876Z,22.79
2023-07-31T19:49:42.321Z,22.78
2023-07-31T19:52:08.695Z,22.77
2023-07-31T19:54:35.106Z,22.77
2023-07-31T19:57:01.522Z,22.75
2023-07-31T19:59:27.865Z,22.76
2023-07-31T20:01:54.240Z,22.74
2023-07-31T20:04:20.577Z,22.74
2023-07-31T20:06:46.855Z,22.73
2023-07-31T20:11:57.223Z,22.70
2023-07-31T20:14:23.538Z,22.69
2023-07-31T20:16:49.882Z,22.69
2023-07-31T20:19:16.213Z,22.68
2023-07-31T20:21:42.622Z,22.66
2023-07-31T20:24:09.505Z,22.65
2023-07-31T20:26:36.144Z,22.65
2023-07-31T20:29:02.680Z,22.64
2023-07-31T20:31:29.204Z,22.64
2023-07-31T20:33:55.548Z,22.63
2023-07-31T20:36:21.962Z,22.63
2023-07-31T20:38:48.321Z,22.62
2023-07-31T20:41:14.692Z,22.60
2023-07-31T20:43:41.422Z,22.59
2023-07-31T20:46:07.992Z,22.58
2023-07-31T20:48:34.684Z,22.57
2023-07-31T20:51:01.243Z,22.56
2023-07-31T20:53:27.648Z,22.54
2023-07-31T20:55:54.265Z,22.56
2023-07-31T20:58:21.666Z,22.54
2023-07-31T21:00:50.866Z,22.53
2023-07-31T21:03:17.381Z,22.52
2023-07-31T21:05:44.014Z,22.51
2023-07-31T21:08:10.910Z,22.51
2023-07-31T21:10:37.385Z,22.49
2023-07-31T21:13:03.759Z,22.48
2023-07-31T21:15:30.244Z,22.48
2023-07-31T21:17:56.747Z,22.47
2023-07-31T21:20:23.212Z,22.47
2023-07-31T21:22:50.137Z,22.46
2023-07-31T21:25:16.601Z,22.45
2023-07-31T21:27:43.021Z,22.43
2023-07-31T21:30:09.552Z,22.43
2023-07-31T21:32:36.150Z,22.43
2023-07-31T21:35:02.606Z,22.42
2023-07-31T21:37:29.409Z,22.41
2023-07-31T21:39:55.847Z,22.41
2023-07-31T21:42:22.247Z,22.40
2023-07-31T21:44:48.664Z,22.39
2023-07-31T21:47:15.145Z,22.37
2023-07-31T21:49:42.115Z,22.37
2023-07-31T21:52:08.536Z,22.37
2023-07-31T21:54:43.227Z,22.37
2023-07-31T21:57:09.728Z,22.36
2023-07-31T21:59:36.063Z,22.35
2023-07-31T22:02:02.485Z,22.34
2023-07-31T22:04:29.867Z,22.33
2023-07-31T22:06:56.423Z,22.32
2023-07-31T22:09:22.814Z,22.31
2023-07-31T22:11:49.270Z,22.31
2023-07-31T22:14:15.700Z,22.30
2023-07-31T22:16:42.357Z,22.30
2023-07-31T22:19:09.492Z,22.29
2023-07-31T22:21:35.964Z,22.27
2023-07-31T22:24:02.903Z,22.24
2023-07-31T22:26:29.376Z,22.21
2023-07-31T22:28:55.861Z,22.18
2023-07-31T22:31:22.296Z,22.15
2023-07-31T22:33:48.710Z,22.12
2023-07-31T22:36:15.113Z,22.09
2023-07-31T22:38:41.553Z,22.07
2023-07-31T22:41:08.182Z,22.05
2023-07-31T22:43:34.703Z,22.02
2023-07-31T22:46:01.284Z,22.00
2023-07-31T22:48:27.662Z,21.97
2023-07-31T22:50:54.320Z,21.96
2023-07-31T22:53:20.744Z,21.95
2023-07-31T22:55:47.330Z,21.92
2023-07-31T22:58:13.697Z,21.90
2023-07-31T23:00:40.291Z,21.88
2023-07-31T23:03:06.783Z,21.87
2023-07-31T23:05:33.214Z,21.85
2023-07-31T23:07:59.661Z,21.83
2023-07-31T23:10:26.080Z,21.81
2023-07-31T23:12:52.536Z,21.79
2023-07-31T23:15:19.011Z,21.77
2023-07-31T23:17:45.363Z,21.76
2023-07-31T23:20:11.753Z,21.74
2023-07-31T23:22:38.247Z,21.72
2023-07-31T23:25:04.657Z,21.71
2023-07-31T23:27:31.013Z,21.70
2023-07-31T23:29:57.441Z,21.69
2023-07-31T23:32:24.019Z,21.67
2023-07-31T23:34:50.457Z,21.66
2023-07-31T23:37:16.785Z,21.64
2023-07-31T23:39:43.218Z,21.63
2023-07-31T23:42:09.728Z,21.61
2023-07-31T23:44:36.214Z,21.60
2023-07-31T23:47:02.549Z,21.60
2023-07-31T23:49:29.117Z,21.58
2023-07-31T23:51:55.909Z,21.57
2023-07-31T23:54:22.351Z,21.56
2023-07-31T23:56:48.923Z,21.54
2023-07-31T23:59:15.313Z,21.53
